sensor_id;sensor_type;location;lat;lon;timestamp;pressure;altitude;pressure_sealevel;temperature;humidity
73551;BME280;61816;53.582;10.096;2023-04-15T00:00:53;54477.47;;;-144.73;100.00
73551;BME280;61816;53.582;10.096;2023-04-15T00:03:18;54469.28;;;-144.73;100.00
73551;BME280;61816;53.582;10.096;2023-04-15T00:05:44;54477.47;;;-144.73;100.00
73551;BME280;61816;53.582;10.096;2023-04-15T00:08:09;54477.47;;;-144.73;100.00
73551;BME280;61816;53.582;10.096;2023-04-15T00:10:34;54411.81;;;-144.73;100.00
73551;BME280;61816;53.582;10.096;2023-04-15T00:13:00;54489.81;;;-144.73;100.00
73551;BME280;61816;53.582;10.096;2023-04-15T00:15:26;54481.59;;;-144.73;100.00
73551;BME280;61816;53.582;10.096;2023-04-15T00:17:51;54493.91;;;-144.73;100.00
73551;BME280;61816;53.582;10.096;2023-04-15T00:20:17;54489.81;;;-144.73;100.00
73551;BME280;61816;53.582;10.096;2023-04-15T00:22:42;54477.47;;;-144.73;100.00
73551;BME280;61816;53.582;10.096;2023-04-15T00:25:08;54495.97;;;-144.73;100.00
73551;BME280;61816;53.582;10.096;2023-04-15T00:27:33;54473.38;;;-144.73;100.00
73551;BME280;61816;53.582;10.096;2023-04-15T00:29:59;54473.38;;;-144.73;100.00
73551;BME280;61816;53.582;10.096;2023-04-15T00:32:24;54477.47;;;-144.73;100.00
73551;BME280;61816;53.582;10.096;2023-04-15T00:34:49;54493.91;;;-144.73;100.00
73551;BME280;61816;53.582;10.096;2023-04-15T00:37:15;54477.47;;;-144.73;100.00
73551;BME280;61816;53.582;10.096;2023-04-15T00:39:40;54491.84;;;-144.73;100.00
73551;BME280;61816;53.582;10.096;2023-04-15T00:42:06;54493.91;;;-144.73;100.00
73551;BME280;61816;53.582;10.096;2023-04-15T00:44:32;54475.44;;;-144.73;100.00
73551;BME280;61816;53.582;10.096;2023-04-15T00:47:00;54463.13;;;-144.73;100.00
73551;BME280;61816;53.582;10.096;2023-04-15T00:49:27;54481.59;;;-144.73;100.00
73551;BME280;61816;53.582;10.096;2023-04-15T00:51:53;54469.28;;;-144.73;100.00
73551;BME280;61816;53.582;10.096;2023-04-15T00:54:18;54498.00;;;-144.73;100.00
73551;BME280;61816;53.582;10.096;2023-04-15T00:56:44;54498.00;;;-144.73;100.00
73551;BME280;61816;53.582;10.096;2023-04-15T00:59:09;54498.00;;;-144.73;100.00
73551;BME280;61816;53.582;10.096;2023-04-15T01:01:35;54456.97;;;-144.73;100.00
73551;BME280;61816;53.582;10.096;2023-04-15T01:04:01;54491.84;;;-144.73;100.00
73551;BME280;61816;53.582;10.096;2023-04-15T01:06:27;54493.91;;;-144.73;100.00
73551;BME280;61816;53.582;10.096;2023-04-15T01:08:54;54493.91;;;-144.73;100.00
73551;BME280;61816;53.582;10.096;2023-04-15T01:11:20;54469.28;;;-144.73;100.00
73551;BME280;61816;53.582;10.096;2023-04-15T01:13:46;54461.06;;;-144.73;100.00
73551;BME280;61816;53.582;10.096;2023-04-15T01:16:13;54512.38;;;-144.73;100.00
73551;BME280;61816;53.582;10.096;2023-04-15T01:18:38;54485.69;;;-144.73;100.00
73551;BME280;61816;53.582;10.096;2023-04-15T01:21:04;54428.22;;;-144.73;100.00
73551;BME280;61816;53.582;10.096;2023-04-15T01:23:30;54498.00;;;-144.73;100.00
73551;BME280;61816;53.582;10.096;2023-04-15T01:25:58;54440.53;;;-144.73;100.00
73551;BME280;61816;53.582;10.096;2023-04-15T01:28:23;54489.81;;;-144.73;100.00
73551;BME280;61816;53.582;10.096;2023-04-15T01:30:50;54463.13;;;-144.73;100.00
73551;BME280;61816;53.582;10.096;2023-04-15T01:33:29;54489.81;;;-144.73;100.00
73551;BME280;61816;53.582;10.096;2023-04-15T01:35:55;54518.53;;;-144.73;100.00
73551;BME280;61816;53.582;10.096;2023-04-15T01:38:21;54452.84;;;-144.73;100.00
73551;BME280;61816;53.582;10.096;2023-04-15T01:40:46;54506.22;;;-144.73;100.00
73551;BME280;61816;53.582;10.096;2023-04-15T01:43:12;54495.97;;;-144.73;100.00
73551;BME280;61816;53.582;10.096;2023-04-15T01:45:37;54465.16;;;-144.73;100.00
73551;BME280;61816;53.582;10.096;2023-04-15T01:48:03;54465.16;;;-144.73;100.00
73551;BME280;61816;53.582;10.096;2023-04-15T01:50:28;54514.44;;;-144.73;100.00
73551;BME280;61816;53.582;10.096;2023-04-15T01:52:53;54467.22;;;-144.73;100.00
73551;BME280;61816;53.582;10.096;2023-04-15T01:55:19;54493.91;;;-144.73;100.00
73551;BME280;61816;53.582;10.096;2023-04-15T01:57:44;54498.00;;;-144.73;100.00
73551;BME280;61816;53.582;10.096;2023-04-15T02:00:10;54514.44;;;-144.73;100.00
73551;BME280;61816;53.582;10.096;2023-04-15T02:02:36;54485.69;;;-144.73;100.00
73551;BME280;61816;53.582;10.096;2023-04-15T02:05:02;54465.16;;;-144.73;100.00
73551;BME280;61816;53.582;10.096;2023-04-15T02:07:28;54502.13;;;-144.73;100.00
73551;BME280;61816;53.582;10.096;2023-04-15T02:09:56;54463.13;;;-144.73;100.00
73551;BME280;61816;53.582;10.096;2023-04-15T02:12:21;54475.44;;;-144.73;100.00
73551;BME280;61816;53.582;10.096;2023-04-15T02:14:47;54456.97;;;-144.73;100.00
73551;BME280;61816;53.582;10.096;2023-04-15T02:17:12;54500.06;;;-144.73;100.00
73551;BME280;61816;53.582;10.096;2023-04-15T02:19:37;54512.38;;;-144.73;100.00
73551;BME280;61816;53.582;10.096;2023-04-15T02:22:04;54506.22;;;-144.73;100.00
73551;BME280;61816;53.582;10.096;2023-04-15T02:24:32;54481.59;;;-144.73;100.00
73551;BME280;61816;53.582;10.096;2023-04-15T02:26:57;54514.44;;;-144.73;100.00
73551;BME280;61816;53.582;10.096;2023-04-15T02:29:23;54498.00;;;-144.73;100.00
73551;BME280;61816;53.582;10.096;2023-04-15T02:31:48;54506.22;;;-144.73;100.00
73551;BME280;61816;53.582;10.096;2023-04-15T02:34:14;54481.59;;;-144.73;100.00
73551;BME280;61816;53.582;10.096;2023-04-15T02:36:39;54487.75;;;-144.73;100.00
73551;BME280;61816;53.582;10.096;2023-04-15T02:39:05;54461.06;;;-144.73;100.00
73551;BME280;61816;53.582;10.096;2023-04-15T02:41:31;54518.53;;;-144.73;100.00
73551;BME280;61816;53.582;10.096;2023-04-15T02:43:56;54489.81;;;-144.73;100.00
73551;BME280;61816;53.582;10.096;2023-04-15T02:46:22;54452.84;;;-144.73;100.00
73551;BME280;61816;53.582;10.096;2023-04-15T02:48:48;54539.06;;;-144.73;100.00
73551;BME280;61816;53.582;10.096;2023-04-15T02:51:15;54522.63;;;-144.73;100.00
73551;BME280;61816;53.582;10.096;2023-04-15T02:53:41;54504.16;;;-144.73;100.00
73551;BME280;61816;53.582;10.096;2023-04-15T02:56:07;54459.00;;;-144.73;100.00
73551;BME280;61816;53.582;10.096;2023-04-15T02:58:34;54522.63;;;-144.73;100.00
73551;BME280;61816;53.582;10.096;2023-04-15T03:01:00;54493.91;;;-144.73;100.00
73551;BME280;61816;53.582;10.096;2023-04-15T03:03:25;54530.84;;;-144.73;100.00
73551;BME280;61816;53.582;10.096;2023-04-15T03:05:52;54504.16;;;-144.73;100.00
73551;BME280;61816;53.582;10.096;2023-04-15T03:08:17;54547.28;;;-144.73;100.00
73551;BME280;61816;53.582;10.096;2023-04-15T03:10:42;54510.31;;;-144.73;100.00
73551;BME280;61816;53.582;10.096;2023-04-15T03:13:08;54489.81;;;-144.73;100.00
73551;BME280;61816;53.582;10.096;2023-04-15T03:15:33;54539.06;;;-144.73;100.00
73551;BME280;61816;53.582;10.096;2023-04-15T03:17:58;54498.00;;;-144.73;100.00
73551;BME280;61816;53.582;10.096;2023-04-15T03:20:24;54522.63;;;-144.73;100.00
73551;BME280;61816;53.582;10.096;2023-04-15T03:22:49;54522.63;;;-144.73;100.00
73551;BME280;61816;53.582;10.096;2023-04-15T03:25:15;54518.53;;;-144.73;100.00
73551;BME280;61816;53.582;10.096;2023-04-15T03:27:40;54522.63;;;-144.73;100.00
73551;BME280;61816;53.582;10.096;2023-04-15T03:30:06;54461.06;;;-144.73;100.00
73551;BME280;61816;53.582;10.096;2023-04-15T03:32:33;54516.47;;;-144.73;100.00
73551;BME280;61816;53.582;10.096;2023-04-15T03:34:58;54512.38;;;-144.73;100.00
73551;BME280;61816;53.582;10.096;2023-04-15T03:37:23;54498.00;;;-144.73;100.00
73551;BME280;61816;53.582;10.096;2023-04-15T03:39:49;54465.16;;;-144.73;100.00
73551;BME280;61816;53.582;10.096;2023-04-15T03:42:15;54498.00;;;-144.73;100.00
73551;BME280;61816;53.582;10.096;2023-04-15T03:44:40;54495.97;;;-144.73;100.00
73551;BME280;61816;53.582;10.096;2023-04-15T03:47:06;54473.38;;;-144.73;100.00
73551;BME280;61816;53.582;10.096;2023-04-15T03:49:31;54518.53;;;-144.73;100.00
73551;BME280;61816;53.582;10.096;2023-04-15T03:51:57;54510.31;;;-144.73;100.00
73551;BME280;61816;53.582;10.096;2023-04-15T03:54:22;54481.59;;;-144.73;100.00
73551;BME280;61816;53.582;10.096;2023-04-15T03:56:48;54504.16;;;-144.73;100.00
73551;BME280;61816;53.582;10.096;2023-04-15T03:59:13;54506.22;;;-144.73;100.00
73551;BME280;61816;53.582;10.096;2023-04-15T04:01:38;54518.53;;;-144.73;100.00
73551;BME280;61816;53.582;10.096;2023-04-15T04:04:04;54506.22;;;-144.73;100.00
73551;BME280;61816;53.582;10.096;2023-04-15T04:06:29;54514.44;;;-144.73;100.00
73551;BME280;61816;53.582;10.096;2023-04-15T04:08:55;54483.66;;;-144.73;100.00
73551;BME280;61816;53.582;10.096;2023-04-15T04:11:20;54539.06;;;-144.73;100.00
73551;BME280;61816;53.582;10.096;2023-04-15T04:13:46;54498.00;;;-144.73;100.00
73551;BME280;61816;53.582;10.096;2023-04-15T04:16:11;54481.59;;;-144.73;100.00
73551;BME280;61816;53.582;10.096;2023-04-15T04:18:36;54489.81;;;-144.73;100.00
73551;BME280;61816;53.582;10.096;2023-04-15T04:21:02;54489.81;;;-144.73;100.00
73551;BME280;61816;53.582;10.096;2023-04-15T04:23:27;54481.59;;;-144.73;100.00
73551;BME280;61816;53.582;10.096;2023-04-15T04:25:53;54518.53;;;-144.73;100.00
73551;BME280;61816;53.582;10.096;2023-04-15T04:28:18;54506.22;;;-144.73;100.00
73551;BME280;61816;53.582;10.096;2023-04-15T04:30:43;54530.84;;;-144.73;100.00
73551;BME280;61816;53.582;10.096;2023-04-15T04:33:09;54493.91;;;-144.73;100.00
73551;BME280;61816;53.582;10.096;2023-04-15T04:35:35;54530.84;;;-144.73;100.00
73551;BME280;61816;53.582;10.096;2023-04-15T04:38:02;54483.66;;;-144.73;100.00
73551;BME280;61816;53.582;10.096;2023-04-15T04:40:28;54477.47;;;-144.73;100.00
73551;BME280;61816;53.582;10.096;2023-04-15T04:42:53;54518.53;;;-144.73;100.00
73551;BME280;61816;53.582;10.096;2023-04-15T04:45:19;54522.63;;;-144.73;100.00
73551;BME280;61816;53.582;10.096;2023-04-15T04:47:44;54506.22;;;-144.73;100.00
73551;BME280;61816;53.582;10.096;2023-04-15T04:50:11;54510.31;;;-144.73;100.00
73551;BME280;61816;53.582;10.096;2023-04-15T04:52:37;54493.91;;;-144.73;100.00
73551;BME280;61816;53.582;10.096;2023-04-15T04:55:02;54518.53;;;-144.73;100.00
73551;BME280;61816;53.582;10.096;2023-04-15T04:57:28;54526.75;;;-144.73;100.00
73551;BME280;61816;53.582;10.096;2023-04-15T04:59:53;54551.38;;;-144.73;100.00
73551;BME280;61816;53.582;10.096;2023-04-15T05:02:18;54555.47;;;-144.73;100.00
73551;BME280;61816;53.582;10.096;2023-04-15T05:04:44;54502.13;;;-144.73;100.00
73551;BME280;61816;53.582;10.096;2023-04-15T05:07:09;54493.91;;;-144.73;100.00
73551;BME280;61816;53.582;10.096;2023-04-15T05:09:35;54473.38;;;-144.73;100.00
73551;BME280;61816;53.582;10.096;2023-04-15T05:12:01;54493.91;;;-144.73;100.00
73551;BME280;61816;53.582;10.096;2023-04-15T05:14:27;54493.91;;;-144.73;100.00
73551;BME280;61816;53.582;10.096;2023-04-15T05:16:52;54491.84;;;-144.73;100.00
73551;BME280;61816;53.582;10.096;2023-04-15T05:19:17;54500.06;;;-144.73;100.00
73551;BME280;61816;53.582;10.096;2023-04-15T05:21:43;54493.91;;;-144.73;100.00
73551;BME280;61816;53.582;10.096;2023-04-15T05:24:08;54489.81;;;-144.73;100.00
73551;BME280;61816;53.582;10.096;2023-04-15T05:26:33;54571.91;;;-144.73;100.00
73551;BME280;61816;53.582;10.096;2023-04-15T05:28:59;54506.22;;;-144.73;100.00
73551;BME280;61816;53.582;10.096;2023-04-15T05:31:24;54491.84;;;-144.73;100.00
73551;BME280;61816;53.582;10.096;2023-04-15T05:33:50;54510.31;;;-144.73;100.00
73551;BME280;61816;53.582;10.096;2023-04-15T05:36:15;54522.63;;;-144.73;100.00
73551;BME280;61816;53.582;10.096;2023-04-15T05:38:41;54502.13;;;-144.73;100.00
73551;BME280;61816;53.582;10.096;2023-04-15T05:41:06;54485.69;;;-144.73;100.00
73551;BME280;61816;53.582;10.096;2023-04-15T05:43:32;54539.06;;;-144.73;100.00
73551;BME280;61816;53.582;10.096;2023-04-15T05:45:58;54493.91;;;-144.73;100.00
73551;BME280;61816;53.582;10.096;2023-04-15T05:48:23;54506.22;;;-144.73;100.00
73551;BME280;61816;53.582;10.096;2023-04-15T05:50:48;54555.47;;;-144.73;100.00
73551;BME280;61816;53.582;10.096;2023-04-15T05:53:14;54502.13;;;-144.73;100.00
73551;BME280;61816;53.582;10.096;2023-04-15T05:55:39;54506.22;;;-144.73;100.00
73551;BME280;61816;53.582;10.096;2023-04-15T05:58:05;54545.22;;;-144.73;100.00
73551;BME280;61816;53.582;10.096;2023-04-15T06:00:30;54539.06;;;-144.73;100.00
73551;BME280;61816;53.582;10.096;2023-04-15T06:02:56;54485.69;;;-144.73;100.00
73551;BME280;61816;53.582;10.096;2023-04-15T06:05:23;54481.59;;;-144.73;100.00
73551;BME280;61816;53.582;10.096;2023-04-15T06:07:48;54498.00;;;-144.73;100.00
73551;BME280;61816;53.582;10.096;2023-04-15T06:10:14;54539.06;;;-144.73;100.00
73551;BME280;61816;53.582;10.096;2023-04-15T06:12:40;54502.13;;;-144.73;100.00
73551;BME280;61816;53.582;10.096;2023-04-15T06:15:06;54543.16;;;-144.73;100.00
73551;BME280;61816;53.582;10.096;2023-04-15T06:17:34;54512.38;;;-144.73;100.00
73551;BME280;61816;53.582;10.096;2023-04-15T06:19:59;54518.53;;;-144.73;100.00
73551;BME280;61816;53.582;10.096;2023-04-15T06:22:24;54547.28;;;-144.73;100.00
73551;BME280;61816;53.582;10.096;2023-04-15T06:24:50;54518.53;;;-144.73;100.00
73551;BME280;61816;53.582;10.096;2023-04-15T06:27:16;54483.66;;;-144.73;100.00
73551;BME280;61816;53.582;10.096;2023-04-15T06:29:41;54530.84;;;-144.73;100.00
73551;BME280;61816;53.582;10.096;2023-04-15T06:32:07;54543.16;;;-144.73;100.00
73551;BME280;61816;53.582;10.096;2023-04-15T06:34:32;54539.06;;;-144.73;100.00
73551;BME280;61816;53.582;10.096;2023-04-15T06:36:58;54522.63;;;-144.73;100.00
73551;BME280;61816;53.582;10.096;2023-04-15T06:39:23;54539.06;;;-144.73;100.00
73551;BME280;61816;53.582;10.096;2023-04-15T06:41:48;54522.63;;;-144.73;100.00
73551;BME280;61816;53.582;10.096;2023-04-15T06:44:14;54545.22;;;-144.73;100.00
73551;BME280;61816;53.582;10.096;2023-04-15T06:46:40;54510.31;;;-144.73;100.00
73551;BME280;61816;53.582;10.096;2023-04-15T06:49:05;54539.06;;;-144.73;100.00
73551;BME280;61816;53.582;10.096;2023-04-15T06:51:31;54510.31;;;-144.73;100.00
73551;BME280;61816;53.582;10.096;2023-04-15T06:53:56;54539.06;;;-144.73;100.00
73551;BME280;61816;53.582;10.096;2023-04-15T06:56:22;54514.44;;;-144.73;100.00
73551;BME280;61816;53.582;10.096;2023-04-15T06:58:48;54477.47;;;-144.73;100.00
73551;BME280;61816;53.582;10.096;2023-04-15T07:01:13;54567.81;;;-144.73;100.00
73551;BME280;61816;53.582;10.096;2023-04-15T07:03:38;54506.22;;;-144.73;100.00
73551;BME280;61816;53.582;10.096;2023-04-15T07:06:04;54539.06;;;-144.73;100.00
73551;BME280;61816;53.582;10.096;2023-04-15T07:08:32;54477.47;;;-144.73;100.00
73551;BME280;61816;53.582;10.096;2023-04-15T07:10:59;54514.44;;;-144.73;100.00
73551;BME280;61816;53.582;10.096;2023-04-15T07:13:24;54498.00;;;-144.73;100.00
73551;BME280;61816;53.582;10.096;2023-04-15T07:15:50;54539.06;;;-144.73;100.00
73551;BME280;61816;53.582;10.096;2023-04-15T07:18:15;54518.53;;;-144.73;100.00
73551;BME280;61816;53.582;10.096;2023-04-15T07:20:41;54571.91;;;-144.73;100.00
73551;BME280;61816;53.582;10.096;2023-04-15T07:23:07;54555.47;;;-144.73;100.00
73551;BME280;61816;53.582;10.096;2023-04-15T07:25:33;54514.44;;;-144.73;100.00
73551;BME280;61816;53.582;10.096;2023-04-15T07:27:58;54539.06;;;-144.73;100.00
73551;BME280;61816;53.582;10.096;2023-04-15T07:30:23;54520.59;;;-144.73;100.00
73551;BME280;61816;53.582;10.096;2023-04-15T07:32:49;54493.91;;;-144.73;100.00
73551;BME280;61816;53.582;10.096;2023-04-15T07:35:14;54506.22;;;-144.73;100.00
73551;BME280;61816;53.582;10.096;2023-04-15T07:37:40;54522.63;;;-144.73;100.00
73551;BME280;61816;53.582;10.096;2023-04-15T07:40:08;54526.75;;;-144.73;100.00
73551;BME280;61816;53.582;10.096;2023-04-15T07:42:34;54522.63;;;-144.73;100.00
73551;BME280;61816;53.582;10.096;2023-04-15T07:44:59;54530.84;;;-144.73;100.00
73551;BME280;61816;53.582;10.096;2023-04-15T07:47:25;54506.22;;;-144.73;100.00
73551;BME280;61816;53.582;10.096;2023-04-15T07:49:51;54489.81;;;-144.73;100.00
73551;BME280;61816;53.582;10.096;2023-04-15T07:52:17;54514.44;;;-144.73;100.00
73551;BME280;61816;53.582;10.096;2023-04-15T07:54:42;54555.47;;;-144.73;100.00
73551;BME280;61816;53.582;10.096;2023-04-15T07:57:08;54539.06;;;-144.73;100.00
73551;BME280;61816;53.582;10.096;2023-04-15T07:59:33;54543.16;;;-144.73;100.00
73551;BME280;61816;53.582;10.096;2023-04-15T08:01:59;54498.00;;;-144.73;100.00
73551;BME280;61816;53.582;10.096;2023-04-15T08:04:24;54551.38;;;-144.73;100.00
73551;BME280;61816;53.582;10.096;2023-04-15T08:06:50;54526.75;;;-144.73;100.00
73551;BME280;61816;53.582;10.096;2023-04-15T08:09:16;54518.53;;;-144.73;100.00
73551;BME280;61816;53.582;10.096;2023-04-15T08:11:42;54539.06;;;-144.73;100.00
73551;BME280;61816;53.582;10.096;2023-04-15T08:14:08;54500.06;;;-144.73;100.00
73551;BME280;61816;53.582;10.096;2023-04-15T08:16:33;54495.97;;;-144.73;100.00
73551;BME280;61816;53.582;10.096;2023-04-15T08:18:59;54526.75;;;-144.73;100.00
73551;BME280;61816;53.582;10.096;2023-04-15T08:21:24;54506.22;;;-144.73;100.00
73551;BME280;61816;53.582;10.096;2023-04-15T08:23:51;54498.00;;;-144.73;100.00
73551;BME280;61816;53.582;10.096;2023-04-15T08:26:17;54530.84;;;-144.73;100.00
73551;BME280;61816;53.582;10.096;2023-04-15T08:28:44;54559.59;;;-144.73;100.00
73551;BME280;61816;53.582;10.096;2023-04-15T08:31:09;54514.44;;;-144.73;100.00
73551;BME280;61816;53.582;10.096;2023-04-15T08:33:35;54522.63;;;-144.73;100.00
73551;BME280;61816;53.582;10.096;2023-04-15T08:36:01;54514.44;;;-144.73;100.00
73551;BME280;61816;53.582;10.096;2023-04-15T08:38:26;54539.06;;;-144.73;100.00
73551;BME280;61816;53.582;10.096;2023-04-15T08:40:51;54522.63;;;-144.73;100.00
73551;BME280;61816;53.582;10.096;2023-04-15T08:43:21;54502.13;;;-144.73;100.00
73551;BME280;61816;53.582;10.096;2023-04-15T08:45:51;54530.84;;;-144.73;100.00
73551;BME280;61816;53.582;10.096;2023-04-15T08:48:17;54514.44;;;-144.73;100.00
73551;BME280;61816;53.582;10.096;2023-04-15T08:50:44;54498.00;;;-144.73;100.00
73551;BME280;61816;53.582;10.096;2023-04-15T08:53:10;54469.28;;;-144.73;100.00
73551;BME280;61816;53.582;10.096;2023-04-15T08:55:45;54547.28;;;-144.73;100.00
73551;BME280;61816;53.582;10.096;2023-04-15T08:58:15;54508.28;;;-144.73;100.00
73551;BME280;61816;53.582;10.096;2023-04-15T09:00:41;54510.31;;;-144.73;100.00
73551;BME280;61816;53.582;10.096;2023-04-15T09:03:08;54500.06;;;-144.73;100.00
73551;BME280;61816;53.582;10.096;2023-04-15T09:05:37;54508.28;;;-144.73;100.00
73551;BME280;61816;53.582;10.096;2023-04-15T09:08:03;54498.00;;;-144.73;100.00
73551;BME280;61816;53.582;10.096;2023-04-15T09:10:30;54539.06;;;-144.73;100.00
73551;BME280;61816;53.582;10.096;2023-04-15T09:12:56;54489.81;;;-144.73;100.00
73551;BME280;61816;53.582;10.096;2023-04-15T09:15:23;54514.44;;;-144.73;100.00
73551;BME280;61816;53.582;10.096;2023-04-15T09:17:49;54555.47;;;-144.73;100.00
73551;BME280;61816;53.582;10.096;2023-04-15T09:20:15;54526.75;;;-144.73;100.00
73551;BME280;61816;53.582;10.096;2023-04-15T09:22:44;54530.84;;;-144.73;100.00
73551;BME280;61816;53.582;10.096;2023-04-15T09:27:57;54508.28;;;-144.73;100.00
73551;BME280;61816;53.582;10.096;2023-04-15T09:30:23;54489.81;;;-144.73;100.00
73551;BME280;61816;53.582;10.096;2023-04-15T09:32:58;54547.28;;;-144.73;100.00
73551;BME280;61816;53.582;10.096;2023-04-15T09:35:25;54508.28;;;-144.73;100.00
73551;BME280;61816;53.582;10.096;2023-04-15T09:37:51;54502.13;;;-144.73;100.00
73551;BME280;61816;53.582;10.096;2023-04-15T09:40:40;54522.63;;;-144.73;100.00
73551;BME280;61816;53.582;10.096;2023-04-15T09:43:08;54495.97;;;-144.73;100.00
73551;BME280;61816;53.582;10.096;2023-04-15T09:45:35;54508.28;;;-144.73;100.00
73551;BME280;61816;53.582;10.096;2023-04-15T09:48:21;54510.31;;;-144.73;100.00
73551;BME280;61816;53.582;10.096;2023-04-15T09:50:48;54465.16;;;-144.73;100.00
73551;BME280;61816;53.582;10.096;2023-04-15T09:53:20;54485.69;;;-144.73;100.00
73551;BME280;61816;53.582;10.096;2023-04-15T09:55:50;54516.47;;;-144.73;100.00
73551;BME280;61816;53.582;10.096;2023-04-15T09:58:29;54539.06;;;-144.73;100.00
73551;BME280;61816;53.582;10.096;2023-04-15T10:00:56;54526.75;;;-144.73;100.00
73551;BME280;61816;53.582;10.096;2023-04-15T10:03:27;54514.44;;;-144.73;100.00
73551;BME280;61816;53.582;10.096;2023-04-15T10:05:54;54432.31;;;-144.73;100.00
73551;BME280;61816;53.582;10.096;2023-04-15T10:08:22;54510.31;;;-144.73;100.00
73551;BME280;61816;53.582;10.096;2023-04-15T10:10:49;54522.63;;;-144.73;100.00
73551;BME280;61816;53.582;10.096;2023-04-15T10:13:18;54491.84;;;-144.73;100.00
73551;BME280;61816;53.582;10.096;2023-04-15T10:15:44;54481.59;;;-144.73;100.00
73551;BME280;61816;53.582;10.096;2023-04-15T10:18:14;54539.06;;;-144.73;100.00
73551;BME280;61816;53.582;10.096;2023-04-15T10:20:41;54522.63;;;-144.73;100.00
73551;BME280;61816;53.582;10.096;2023-04-15T10:23:07;54485.69;;;-144.73;100.00
73551;BME280;61816;53.582;10.096;2023-04-15T10:25:33;54485.69;;;-144.73;100.00
73551;BME280;61816;53.582;10.096;2023-04-15T10:27:59;54514.44;;;-144.73;100.00
73551;BME280;61816;53.582;10.096;2023-04-15T10:30:25;54487.75;;;-144.73;100.00
73551;BME280;61816;53.582;10.096;2023-04-15T10:32:50;54522.63;;;-144.73;100.00
73551;BME280;61816;53.582;10.096;2023-04-15T10:35:17;54498.00;;;-144.73;100.00
73551;BME280;61816;53.582;10.096;2023-04-15T10:37:43;54465.16;;;-144.73;100.00
73551;BME280;61816;53.582;10.096;2023-04-15T10:40:28;54473.38;;;-144.73;100.00
73551;BME280;61816;53.582;10.096;2023-04-15T10:43:02;54456.97;;;-144.73;100.00
73551;BME280;61816;53.582;10.096;2023-04-15T10:45:32;54477.47;;;-144.73;100.00
73551;BME280;61816;53.582;10.096;2023-04-15T10:48:00;54469.28;;;-144.73;100.00
73551;BME280;61816;53.582;10.096;2023-04-15T10:50:26;54522.63;;;-144.73;100.00
73551;BME280;61816;53.582;10.096;2023-04-15T10:52:54;54506.22;;;-144.73;100.00
73551;BME280;61816;53.582;10.096;2023-04-15T10:55:22;54477.47;;;-144.73;100.00
73551;BME280;61816;53.582;10.096;2023-04-15T10:57:57;54506.22;;;-144.73;98.91
73551;BME280;61816;53.582;10.096;2023-04-15T11:00:24;54506.22;;;-144.73;98.33
73551;BME280;61816;53.582;10.096;2023-04-15T11:02:54;54504.16;;;-144.73;98.20
73551;BME280;61816;53.582;10.096;2023-04-15T11:05:22;54522.63;;;-144.73;98.56
73551;BME280;61816;53.582;10.096;2023-04-15T11:08:11;54539.06;;;-144.73;96.65
73551;BME280;61816;53.582;10.096;2023-04-15T11:13:24;54518.53;;;-144.73;95.61
73551;BME280;61816;53.582;10.096;2023-04-15T11:15:55;54506.22;;;-144.73;96.04
73551;BME280;61816;53.582;10.096;2023-04-15T11:18:27;54539.06;;;-144.73;96.76
73551;BME280;61816;53.582;10.096;2023-04-15T11:20:54;54516.47;;;-144.73;97.20
73551;BME280;61816;53.582;10.096;2023-04-15T11:23:42;54539.06;;;-144.73;96.28
73551;BME280;61816;53.582;10.096;2023-04-15T11:26:11;54518.53;;;-144.73;97.55
73551;BME280;61816;53.582;10.096;2023-04-15T11:28:38;54508.28;;;-144.73;96.32
73551;BME280;61816;53.582;10.096;2023-04-15T11:31:11;54514.44;;;-144.73;97.69
73551;BME280;61816;53.582;10.096;2023-04-15T11:33:37;54510.31;;;-144.73;97.78
73551;BME280;61816;53.582;10.096;2023-04-15T11:36:02;54493.91;;;-144.73;98.46
73551;BME280;61816;53.582;10.096;2023-04-15T11:38:28;54498.00;;;-144.73;98.22
73551;BME280;61816;53.582;10.096;2023-04-15T11:40:54;54481.59;;;-144.73;98.43
73551;BME280;61816;53.582;10.096;2023-04-15T11:43:21;54539.06;;;-144.73;96.36
73551;BME280;61816;53.582;10.096;2023-04-15T11:45:55;54469.28;;;-144.73;94.56
73551;BME280;61816;53.582;10.096;2023-04-15T11:48:29;54493.91;;;-144.73;90.24
73551;BME280;61816;53.582;10.096;2023-04-15T11:50:58;54510.31;;;-144.73;89.08
73551;BME280;61816;53.582;10.096;2023-04-15T11:53:35;54481.59;;;-144.73;87.13
73551;BME280;61816;53.582;10.096;2023-04-15T11:56:01;54493.91;;;-144.73;89.04
73551;BME280;61816;53.582;10.096;2023-04-15T11:58:29;54506.22;;;-144.73;89.48
73551;BME280;61816;53.582;10.096;2023-04-15T12:00:59;54489.81;;;-144.73;88.64
73551;BME280;61816;53.582;10.096;2023-04-15T12:03:30;54477.47;;;-144.73;88.26
73551;BME280;61816;53.582;10.096;2023-04-15T12:06:16;54510.31;;;-144.73;88.36
73551;BME280;61816;53.582;10.096;2023-04-15T12:09:16;54481.59;;;-144.73;89.44
73551;BME280;61816;53.582;10.096;2023-04-15T12:11:44;54526.75;;;-144.73;90.93
73551;BME280;61816;53.582;10.096;2023-04-15T12:16:47;54481.59;;;-144.73;94.45
73551;BME280;61816;53.582;10.096;2023-04-15T12:19:21;54485.69;;;-144.73;95.41
73551;BME280;61816;53.582;10.096;2023-04-15T12:21:47;54512.38;;;-144.73;94.75
73551;BME280;61816;53.582;10.096;2023-04-15T12:24:12;54498.00;;;-144.73;94.04
73551;BME280;61816;53.582;10.096;2023-04-15T12:26:52;54512.38;;;-144.73;93.08